Soekarno-Hatta International Airport
WIII : now visible

Airfield :











YOU CAN JOIN US ON...

 
LOGIN :

Register | Disclaimer

   EN    FR    IT 

 









Legend :    VFR   Marginal VFR   IFR   Intensive IFR   Very Intensive IFR
Visi :
Ceiling :
>= 8 km
>= 3000ft
5 to 8 km
1000 to 3000 ft
1500m to 5 km
500 to 1000 ft
800 to 1500m
200 to 500 ft
< 800m
< 200 ft
Symbols :   Thunderstorms  Fog  Heavy snow  Heavy precipitations  Wind > 20 kt







- Airport Elevation : 34 ft
- IATA code : CGK


WIII - Soekarno-Hatta International

CURRENT METAR :
  • 251530Z VRB05KT 6000 FEW020 27/22 Q1012 NOSIG

EXPIRED METARs :
  • 251500Z VRB05KT 6000 FEW020 27/22 Q1012 NOSIG
  • 251430Z VRB05KT 6000 FEW020 27/22 Q1012 NOSIG
  • 251400Z 11005KT 6000 FEW020 26/22 Q1011 NOSIG
  • 251330Z 10009KT 7000 FEW020 27/22 Q1011 NOSIG
  • 251300Z 09009KT 8000 FEW020 27/22 Q1011 NOSIG

TAF TAF WIII
Valid from the 25 at 12:00 until the 26 at 18:00 UTC


251100Z 2512/2618 VRB03KT 9000 FEW020
BECMG 2515/2517 5000 HZ
BECMG 2601/2603 07010KT 9999 NSW
WIIF FIR / Asia



MET'MAP, your aeronautical weather chart ! - Copyright ORBIFLY December 2007 - Disclaimer

ORBIFLY MET'MAP TEAM :

Programming & Development : Alexandra Zaïnal
Concept & Development : Baudouin d'Aumeries
Co-Development & Prog : Marc-Olivier Méhu
Technical & hardware support : Manuel Goepfert

Contact : metmap@orbifly.com




SOURCES & CREDITS :

   NOAA       Earth
Advisory